sensor_id;sensor_type;location;lat;lon;timestamp;temperature;humidity
1812;DHT22;904;47.814;11.134;2023-06-22T00:01:46;22.90;84.70
1812;DHT22;904;47.814;11.134;2023-06-22T00:04:13;22.80;84.90
1812;DHT22;904;47.814;11.134;2023-06-22T00:06:40;22.80;85.50
1812;DHT22;904;47.814;11.134;2023-06-22T00:09:07;22.70;85.70
1812;DHT22;904;47.814;11.134;2023-06-22T00:11:37;22.70;85.20
1812;DHT22;904;47.814;11.134;2023-06-22T00:14:04;22.60;85.00
1812;DHT22;904;47.814;11.134;2023-06-22T00:16:32;22.60;85.20
1812;DHT22;904;47.814;11.134;2023-06-22T00:18:59;22.60;85.70
1812;DHT22;904;47.814;11.134;2023-06-22T00:21:28;22.50;86.10
1812;DHT22;904;47.814;11.134;2023-06-22T00:23:55;22.50;86.60
1812;DHT22;904;47.814;11.134;2023-06-22T00:26:23;22.40;86.30
1812;DHT22;904;47.814;11.134;2023-06-22T00:28:55;22.40;86.70
1812;DHT22;904;47.814;11.134;2023-06-22T00:31:22;22.30;86.50
1812;DHT22;904;47.814;11.134;2023-06-22T00:33:49;22.30;87.00
1812;DHT22;904;47.814;11.134;2023-06-22T00:36:17;22.20;87.60
1812;DHT22;904;47.814;11.134;2023-06-22T00:38:44;22.20;87.70
1812;DHT22;904;47.814;11.134;2023-06-22T00:41:16;22.20;87.70
1812;DHT22;904;47.814;11.134;2023-06-22T00:43:43;22.10;87.70
1812;DHT22;904;47.814;11.134;2023-06-22T00:46:11;22.00;87.80
1812;DHT22;904;47.814;11.134;2023-06-22T00:48:41;22.00;88.20
1812;DHT22;904;47.814;11.134;2023-06-22T00:51:10;21.90;88.60
1812;DHT22;904;47.814;11.134;2023-06-22T00:53:37;21.90;89.00
1812;DHT22;904;47.814;11.134;2023-06-22T00:56:05;21.80;89.50
1812;DHT22;904;47.814;11.134;2023-06-22T00:58:35;21.80;89.60
1812;DHT22;904;47.814;11.134;2023-06-22T01:01:02;21.70;89.60
1812;DHT22;904;47.814;11.134;2023-06-22T01:03:31;21.70;90.00
1812;DHT22;904;47.814;11.134;2023-06-22T01:06:05;21.70;90.00
1812;DHT22;904;47.814;11.134;2023-06-22T01:08:39;21.60;90.20
1812;DHT22;904;47.814;11.134;2023-06-22T01:11:12;21.60;90.10
1812;DHT22;904;47.814;11.134;2023-06-22T01:13:50;21.60;87.90
1812;DHT22;904;47.814;11.134;2023-06-22T01:16:23;21.50;86.80
1812;DHT22;904;47.814;11.134;2023-06-22T01:19:00;21.40;88.30
1812;DHT22;904;47.814;11.134;2023-06-22T01:21:30;21.30;88.80
1812;DHT22;904;47.814;11.134;2023-06-22T01:24:07;21.20;89.50
1812;DHT22;904;47.814;11.134;2023-06-22T01:26:40;21.20;90.80
1812;DHT22;904;47.814;11.134;2023-06-22T01:29:11;21.20;90.90
1812;DHT22;904;47.814;11.134;2023-06-22T01:31:44;21.10;91.00
1812;DHT22;904;47.814;11.134;2023-06-22T01:34:12;21.10;90.90
1812;DHT22;904;47.814;11.134;2023-06-22T01:36:41;21.10;90.90
1812;DHT22;904;47.814;11.134;2023-06-22T01:39:09;21.00;91.60
1812;DHT22;904;47.814;11.134;2023-06-22T01:41:38;21.00;91.70
1812;DHT22;904;47.814;11.134;2023-06-22T01:44:06;21.00;91.70
1812;DHT22;904;47.814;11.134;2023-06-22T01:46:36;21.00;91.90
1812;DHT22;904;47.814;11.134;2023-06-22T01:49:06;21.00;91.70
1812;DHT22;904;47.814;11.134;2023-06-22T01:51:34;21.00;91.70
1812;DHT22;904;47.814;11.134;2023-06-22T01:54:07;21.00;91.40
1812;DHT22;904;47.814;11.134;2023-06-22T01:56:37;20.90;91.40
1812;DHT22;904;47.814;11.134;2023-06-22T01:59:11;20.90;91.40
1812;DHT22;904;47.814;11.134;2023-06-22T02:01:43;20.80;91.30
1812;DHT22;904;47.814;11.134;2023-06-22T02:04:13;20.80;91.50
1812;DHT22;904;47.814;11.134;2023-06-22T02:06:46;20.80;92.00
1812;DHT22;904;47.814;11.134;2023-06-22T02:09:17;20.80;91.80
1812;DHT22;904;47.814;11.134;2023-06-22T02:11:46;20.80;92.00
1812;DHT22;904;47.814;11.134;2023-06-22T02:14:16;20.70;91.60
1812;DHT22;904;47.814;11.134;2023-06-22T02:16:46;20.70;91.80
1812;DHT22;904;47.814;11.134;2023-06-22T02:19:13;20.60;92.10
1812;DHT22;904;47.814;11.134;2023-06-22T02:21:44;20.50;92.20
1812;DHT22;904;47.814;11.134;2023-06-22T02:24:11;20.50;92.40
1812;DHT22;904;47.814;11.134;2023-06-22T02:26:38;20.50;92.30
1812;DHT22;904;47.814;11.134;2023-06-22T02:29:13;20.40;92.20
1812;DHT22;904;47.814;11.134;2023-06-22T02:31:40;20.40;92.50
1812;DHT22;904;47.814;11.134;2023-06-22T02:34:08;20.30;92.50
1812;DHT22;904;47.814;11.134;2023-06-22T02:36:35;20.40;92.20
1812;DHT22;904;47.814;11.134;2023-06-22T02:39:05;20.30;92.20
1812;DHT22;904;47.814;11.134;2023-06-22T02:41:32;20.30;92.60
1812;DHT22;904;47.814;11.134;2023-06-22T02:43:59;20.20;92.70
1812;DHT22;904;47.814;11.134;2023-06-22T02:46:28;20.30;92.80
1812;DHT22;904;47.814;11.134;2023-06-22T02:48:56;20.30;92.50
1812;DHT22;904;47.814;11.134;2023-06-22T02:51:25;20.20;92.30
1812;DHT22;904;47.814;11.134;2023-06-22T02:53:52;20.20;92.60
1812;DHT22;904;47.814;11.134;2023-06-22T02:56:28;20.20;92.70
1812;DHT22;904;47.814;11.134;2023-06-22T02:58:56;20.10;92.80
1812;DHT22;904;47.814;11.134;2023-06-22T03:01:27;20.10;93.30
1812;DHT22;904;47.814;11.134;2023-06-22T03:03:57;20.10;93.90
1812;DHT22;904;47.814;11.134;2023-06-22T03:06:33;20.10;93.80
1812;DHT22;904;47.814;11.134;2023-06-22T03:09:03;20.10;93.90
1812;DHT22;904;47.814;11.134;2023-06-22T03:11:31;20.10;93.80
1812;DHT22;904;47.814;11.134;2023-06-22T03:13:58;20.00;94.00
1812;DHT22;904;47.814;11.134;2023-06-22T03:16:25;20.00;93.80
1812;DHT22;904;47.814;11.134;2023-06-22T03:18:53;20.00;94.00
1812;DHT22;904;47.814;11.134;2023-06-22T03:21:23;19.90;94.20
1812;DHT22;904;47.814;11.134;2023-06-22T03:23:51;19.90;94.20
1812;DHT22;904;47.814;11.134;2023-06-22T03:26:19;19.90;94.00
1812;DHT22;904;47.814;11.134;2023-06-22T03:28:46;19.90;94.00
1812;DHT22;904;47.814;11.134;2023-06-22T03:31:13;19.90;94.20
1812;DHT22;904;47.814;11.134;2023-06-22T03:33:42;19.90;94.00
1812;DHT22;904;47.814;11.134;2023-06-22T03:36:09;19.90;93.60
1812;DHT22;904;47.814;11.134;2023-06-22T03:38:37;19.90;93.80
1812;DHT22;904;47.814;11.134;2023-06-22T03:41:05;19.80;94.20
1812;DHT22;904;47.814;11.134;2023-06-22T03:43:34;19.80;94.40
1812;DHT22;904;47.814;11.134;2023-06-22T03:46:04;19.80;94.70
1812;DHT22;904;47.814;11.134;2023-06-22T03:48:31;19.80;95.00
1812;DHT22;904;47.814;11.134;2023-06-22T03:51:02;19.80;95.10
1812;DHT22;904;47.814;11.134;2023-06-22T03:53:29;19.90;95.20
1812;DHT22;904;47.814;11.134;2023-06-22T03:55:57;19.90;95.10
1812;DHT22;904;47.814;11.134;2023-06-22T03:58:25;19.90;95.10
1812;DHT22;904;47.814;11.134;2023-06-22T04:00:53;19.90;95.00
1812;DHT22;904;47.814;11.134;2023-06-22T04:03:20;19.90;95.20
1812;DHT22;904;47.814;11.134;2023-06-22T04:05:47;20.00;95.20
1812;DHT22;904;47.814;11.134;2023-06-22T04:08:14;20.00;95.00
1812;DHT22;904;47.814;11.134;2023-06-22T04:10:41;20.00;95.10
1812;DHT22;904;47.814;11.134;2023-06-22T04:13:08;20.00;95.10
1812;DHT22;904;47.814;11.134;2023-06-22T04:15:37;20.00;95.50
1812;DHT22;904;47.814;11.134;2023-06-22T04:18:04;20.00;95.70
1812;DHT22;904;47.814;11.134;2023-06-22T04:20:32;20.10;95.90
1812;DHT22;904;47.814;11.134;2023-06-22T04:22:59;20.10;95.60
1812;DHT22;904;47.814;11.134;2023-06-22T04:25:28;20.20;95.50
1812;DHT22;904;47.814;11.134;2023-06-22T04:27:56;20.30;95.30
1812;DHT22;904;47.814;11.134;2023-06-22T04:30:32;20.30;95.20
1812;DHT22;904;47.814;11.134;2023-06-22T04:33:00;20.30;95.10
1812;DHT22;904;47.814;11.134;2023-06-22T04:35:28;20.30;94.80
1812;DHT22;904;47.814;11.134;2023-06-22T04:37:57;20.30;94.90
1812;DHT22;904;47.814;11.134;2023-06-22T04:40:25;20.30;95.20
1812;DHT22;904;47.814;11.134;2023-06-22T04:42:53;20.40;95.40
1812;DHT22;904;47.814;11.134;2023-06-22T04:45:20;20.40;95.20
1812;DHT22;904;47.814;11.134;2023-06-22T04:47:48;20.50;95.20
1812;DHT22;904;47.814;11.134;2023-06-22T04:50:16;20.50;95.20
1812;DHT22;904;47.814;11.134;2023-06-22T04:52:46;20.60;95.10
1812;DHT22;904;47.814;11.134;2023-06-22T04:55:14;20.60;95.30
1812;DHT22;904;47.814;11.134;2023-06-22T04:57:44;20.60;95.20
1812;DHT22;904;47.814;11.134;2023-06-22T05:00:15;20.70;95.60
1812;DHT22;904;47.814;11.134;2023-06-22T05:02:43;20.70;95.60
1812;DHT22;904;47.814;11.134;2023-06-22T05:05:11;20.80;95.40
1812;DHT22;904;47.814;11.134;2023-06-22T05:07:42;20.80;95.40
1812;DHT22;904;47.814;11.134;2023-06-22T05:10:10;20.80;95.40
1812;DHT22;904;47.814;11.134;2023-06-22T05:12:38;20.90;95.60
1812;DHT22;904;47.814;11.134;2023-06-22T05:15:06;20.90;95.40
1812;DHT22;904;47.814;11.134;2023-06-22T05:17:39;20.90;94.90
1812;DHT22;904;47.814;11.134;2023-06-22T05:20:09;21.00;95.00
1812;DHT22;904;47.814;11.134;2023-06-22T05:22:42;21.00;94.80
1812;DHT22;904;47.814;11.134;2023-06-22T05:25:10;20.90;94.70
1812;DHT22;904;47.814;11.134;2023-06-22T05:27:37;20.90;95.00
1812;DHT22;904;47.814;11.134;2023-06-22T05:30:06;20.90;95.30
1812;DHT22;904;47.814;11.134;2023-06-22T05:32:34;21.10;95.50
1812;DHT22;904;47.814;11.134;2023-06-22T05:35:02;21.20;95.40
1812;DHT22;904;47.814;11.134;2023-06-22T05:37:29;21.20;95.60
1812;DHT22;904;47.814;11.134;2023-06-22T05:39:57;21.30;96.00
1812;DHT22;904;47.814;11.134;2023-06-22T05:42:24;21.40;96.00
1812;DHT22;904;47.814;11.134;2023-06-22T05:44:52;21.50;95.80
1812;DHT22;904;47.814;11.134;2023-06-22T05:47:20;21.60;95.50
1812;DHT22;904;47.814;11.134;2023-06-22T05:49:48;21.60;95.40
1812;DHT22;904;47.814;11.134;2023-06-22T05:52:15;21.70;95.20
1812;DHT22;904;47.814;11.134;2023-06-22T05:54:42;21.80;95.30
1812;DHT22;904;47.814;11.134;2023-06-22T05:57:10;21.90;95.40
1812;DHT22;904;47.814;11.134;2023-06-22T05:59:37;22.00;95.00
1812;DHT22;904;47.814;11.134;2023-06-22T06:02:04;22.10;94.90
1812;DHT22;904;47.814;11.134;2023-06-22T06:04:31;22.20;94.90
1812;DHT22;904;47.814;11.134;2023-06-22T06:06:58;22.30;94.90
1812;DHT22;904;47.814;11.134;2023-06-22T06:09:26;22.40;94.70
1812;DHT22;904;47.814;11.134;2023-06-22T06:11:53;22.50;94.70
1812;DHT22;904;47.814;11.134;2023-06-22T06:14:25;22.60;94.60
1812;DHT22;904;47.814;11.134;2023-06-22T06:16:52;22.60;94.60
1812;DHT22;904;47.814;11.134;2023-06-22T06:19:21;22.70;94.80
1812;DHT22;904;47.814;11.134;2023-06-22T06:21:48;22.80;94.00
1812;DHT22;904;47.814;11.134;2023-06-22T06:24:17;22.90;94.00
1812;DHT22;904;47.814;11.134;2023-06-22T06:26:44;23.00;93.90
1812;DHT22;904;47.814;11.134;2023-06-22T06:29:12;23.10;93.10
1812;DHT22;904;47.814;11.134;2023-06-22T06:31:43;23.00;92.50
1812;DHT22;904;47.814;11.134;2023-06-22T06:34:15;23.10;93.00
1812;DHT22;904;47.814;11.134;2023-06-22T06:36:42;23.20;92.40
1812;DHT22;904;47.814;11.134;2023-06-22T06:39:14;23.30;92.50
1812;DHT22;904;47.814;11.134;2023-06-22T06:41:42;23.40;92.70
1812;DHT22;904;47.814;11.134;2023-06-22T06:44:11;23.50;92.30
1812;DHT22;904;47.814;11.134;2023-06-22T06:46:40;23.60;91.90
1812;DHT22;904;47.814;11.134;2023-06-22T06:49:12;23.60;91.30
1812;DHT22;904;47.814;11.134;2023-06-22T06:51:41;23.70;91.30
1812;DHT22;904;47.814;11.134;2023-06-22T06:54:08;23.80;91.30
1812;DHT22;904;47.814;11.134;2023-06-22T06:56:37;23.90;91.20
1812;DHT22;904;47.814;11.134;2023-06-22T06:59:04;24.10;90.40
1812;DHT22;904;47.814;11.134;2023-06-22T07:01:37;24.10;90.30
1812;DHT22;904;47.814;11.134;2023-06-22T07:04:04;24.20;89.40
1812;DHT22;904;47.814;11.134;2023-06-22T07:06:33;24.30;89.00
1812;DHT22;904;47.814;11.134;2023-06-22T07:09:02;24.30;88.70
1812;DHT22;904;47.814;11.134;2023-06-22T07:11:29;24.40;88.10
1812;DHT22;904;47.814;11.134;2023-06-22T07:13:56;24.50;88.60
1812;DHT22;904;47.814;11.134;2023-06-22T07:16:23;24.60;89.50
1812;DHT22;904;47.814;11.134;2023-06-22T07:18:51;24.70;90.10
1812;DHT22;904;47.814;11.134;2023-06-22T07:21:18;24.90;90.10
1812;DHT22;904;47.814;11.134;2023-06-22T07:23:51;25.00;90.00
1812;DHT22;904;47.814;11.134;2023-06-22T07:26:21;25.10;89.30
1812;DHT22;904;47.814;11.134;2023-06-22T07:28:54;25.30;88.00
1812;DHT22;904;47.814;11.134;2023-06-22T07:31:24;25.30;87.20
1812;DHT22;904;47.814;11.134;2023-06-22T07:33:56;25.50;86.90
1812;DHT22;904;47.814;11.134;2023-06-22T07:36:29;25.60;86.80
1812;DHT22;904;47.814;11.134;2023-06-22T07:38:58;25.80;86.60
1812;DHT22;904;47.814;11.134;2023-06-22T07:41:25;26.00;85.80
1812;DHT22;904;47.814;11.134;2023-06-22T07:43:58;26.10;84.60
1812;DHT22;904;47.814;11.134;2023-06-22T07:46:27;26.20;83.00
1812;DHT22;904;47.814;11.134;2023-06-22T07:48:56;26.30;81.70
1812;DHT22;904;47.814;11.134;2023-06-22T07:51:23;26.40;80.50
1812;DHT22;904;47.814;11.134;2023-06-22T07:53:50;26.60;80.30
1812;DHT22;904;47.814;11.134;2023-06-22T07:56:18;26.60;80.10
1812;DHT22;904;47.814;11.134;2023-06-22T07:58:51;26.70;78.90
1812;DHT22;904;47.814;11.134;2023-06-22T08:01:20;26.80;76.70
1812;DHT22;904;47.814;11.134;2023-06-22T08:03:48;26.80;76.90
1812;DHT22;904;47.814;11.134;2023-06-22T08:06:16;26.90;76.90
1812;DHT22;904;47.814;11.134;2023-06-22T08:08:45;27.00;76.10
1812;DHT22;904;47.814;11.134;2023-06-22T08:11:14;27.00;76.60
1812;DHT22;904;47.814;11.134;2023-06-22T08:13:46;27.20;77.20
1812;DHT22;904;47.814;11.134;2023-06-22T08:16:13;27.30;76.60
1812;DHT22;904;47.814;11.134;2023-06-22T08:18:40;27.40;75.80
1812;DHT22;904;47.814;11.134;2023-06-22T08:21:11;27.50;75.40
1812;DHT22;904;47.814;11.134;2023-06-22T08:23:43;27.60;75.30
1812;DHT22;904;47.814;11.134;2023-06-22T08:26:12;27.80;75.70
1812;DHT22;904;47.814;11.134;2023-06-22T08:28:41;27.90;74.60
1812;DHT22;904;47.814;11.134;2023-06-22T08:31:09;28.00;74.50
1812;DHT22;904;47.814;11.134;2023-06-22T08:33:39;28.20;74.00
1812;DHT22;904;47.814;11.134;2023-06-22T08:36:11;28.30;73.20
1812;DHT22;904;47.814;11.134;2023-06-22T08:38:43;28.40;73.40
1812;DHT22;904;47.814;11.134;2023-06-22T08:41:12;28.60;73.30
1812;DHT22;904;47.814;11.134;2023-06-22T08:43:39;28.60;72.40
1812;DHT22;904;47.814;11.134;2023-06-22T08:46:09;28.80;72.00
1812;DHT22;904;47.814;11.134;2023-06-22T08:48:36;28.90;71.90
1812;DHT22;904;47.814;11.134;2023-06-22T08:51:04;29.10;72.40
1812;DHT22;904;47.814;11.134;2023-06-22T08:53:32;29.20;70.80
1812;DHT22;904;47.814;11.134;2023-06-22T08:56:00;29.30;69.60
1812;DHT22;904;47.814;11.134;2023-06-22T08:58:30;29.40;69.20
1812;DHT22;904;47.814;11.134;2023-06-22T09:00:57;29.50;69.40
1812;DHT22;904;47.814;11.134;2023-06-22T09:03:28;29.60;69.50
1812;DHT22;904;47.814;11.134;2023-06-22T09:05:57;29.80;69.80
1812;DHT22;904;47.814;11.134;2023-06-22T09:08:24;30.00;68.10
1812;DHT22;904;47.814;11.134;2023-06-22T09:10:54;30.10;66.30
1812;DHT22;904;47.814;11.134;2023-06-22T09:13:21;30.20;65.90
1812;DHT22;904;47.814;11.134;2023-06-22T09:15:54;30.30;65.90
1812;DHT22;904;47.814;11.134;2023-06-22T09:18:21;30.50;65.40
1812;DHT22;904;47.814;11.134;2023-06-22T09:20:50;30.60;64.80
1812;DHT22;904;47.814;11.134;2023-06-22T09:23:17;30.90;64.90
1812;DHT22;904;47.814;11.134;2023-06-22T09:25:46;31.00;63.50
1812;DHT22;904;47.814;11.134;2023-06-22T09:28:13;31.20;62.30
1812;DHT22;904;47.814;11.134;2023-06-22T09:30:42;31.30;59.90
1812;DHT22;904;47.814;11.134;2023-06-22T09:33:09;31.30;58.80
1812;DHT22;904;47.814;11.134;2023-06-22T09:35:41;31.30;58.50
1812;DHT22;904;47.814;11.134;2023-06-22T09:38:10;31.30;58.60
1812;DHT22;904;47.814;11.134;2023-06-22T09:40:37;31.30;58.80
1812;DHT22;904;47.814;11.134;2023-06-22T09:43:11;31.40;59.20
1812;DHT22;904;47.814;11.134;2023-06-22T09:45:38;31.60;59.10
1812;DHT22;904;47.814;11.134;2023-06-22T09:48:06;31.70;57.50
1812;DHT22;904;47.814;11.134;2023-06-22T09:50:42;31.70;57.40
1812;DHT22;904;47.814;11.134;2023-06-22T09:53:11;31.80;58.00
1812;DHT22;904;47.814;11.134;2023-06-22T09:55:38;31.90;57.60
1812;DHT22;904;47.814;11.134;2023-06-22T09:58:09;32.10;57.50
1812;DHT22;904;47.814;11.134;2023-06-22T10:00:37;32.20;56.70
1812;DHT22;904;47.814;11.134;2023-06-22T10:03:04;32.30;56.90
1812;DHT22;904;47.814;11.134;2023-06-22T10:05:31;32.40;55.90
1812;DHT22;904;47.814;11.134;2023-06-22T10:08:00;32.40;55.30
1812;DHT22;904;47.814;11.134;2023-06-22T10:10:28;32.50;55.50
1812;DHT22;904;47.814;11.134;2023-06-22T10:13:06;32.50;55.20
1812;DHT22;904;47.814;11.134;2023-06-22T10:15:37;32.60;54.90
1812;DHT22;904;47.814;11.134;2023-06-22T10:18:05;32.60;55.30
1812;DHT22;904;47.814;11.134;2023-06-22T10:20:34;32.60;55.60
1812;DHT22;904;47.814;11.134;2023-06-22T10:23:01;32.60;55.10
1812;DHT22;904;47.814;11.134;2023-06-22T10:25:30;32.60;54.60
1812;DHT22;904;47.814;11.134;2023-06-22T10:27:59;32.60;54.40
1812;DHT22;904;47.814;11.134;2023-06-22T10:30:26;32.70;54.60
1812;DHT22;904;47.814;11.134;2023-06-22T10:32:54;32.80;54.10
1812;DHT22;904;47.814;11.134;2023-06-22T10:35:29;32.90;53.60
1812;DHT22;904;47.814;11.134;2023-06-22T10:37:56;32.90;53.00
1812;DHT22;904;47.814;11.134;2023-06-22T10:40:30;32.90;53.00
1812;DHT22;904;47.814;11.134;2023-06-22T10:43:04;32.90;53.50
1812;DHT22;904;47.814;11.134;2023-06-22T10:45:38;33.00;52.50
1812;DHT22;904;47.814;11.134;2023-06-22T10:48:05;33.00;52.70
1812;DHT22;904;47.814;11.134;2023-06-22T10:50:32;33.10;52.10
1812;DHT22;904;47.814;11.134;2023-06-22T10:52:59;33.20;51.30
1812;DHT22;904;47.814;11.134;2023-06-22T10:55:31;33.20;51.80
1812;DHT22;904;47.814;11.134;2023-06-22T10:57:58;33.20;53.20
1812;DHT22;904;47.814;11.134;2023-06-22T11:00:25;33.40;53.20
1812;DHT22;904;47.814;11.134;2023-06-22T11:02:56;33.50;52.40
1812;DHT22;904;47.814;11.134;2023-06-22T11:05:26;33.60;51.60
1812;DHT22;904;47.814;11.134;2023-06-22T11:08:02;33.70;50.40
1812;DHT22;904;47.814;11.134;2023-06-22T11:10:30;33.80;50.60
1812;DHT22;904;47.814;11.134;2023-06-22T11:12:59;33.90;50.80
1812;DHT22;904;47.814;11.134;2023-06-22T11:15:26;34.00;48.60
1812;DHT22;904;47.814;11.134;2023-06-22T11:18:12;34.00;47.90
1812;DHT22;904;47.814;11.134;2023-06-22T11:20:44;34.00;48.30
1812;DHT22;904;47.814;11.134;2023-06-22T11:23:12;34.10;49.20
1812;DHT22;904;47.814;11.134;2023-06-22T11:25:42;34.20;48.30
1812;DHT22;904;47.814;11.134;2023-06-22T11:28:10;34.20;47.70
1812;DHT22;904;47.814;11.134;2023-06-22T11:30:41;34.30;47.20
1812;DHT22;904;47.814;11.134;2023-06-22T11:33:08;34.30;46.80
1812;DHT22;904;47.814;11.134;2023-06-22T11:35:37;34.30;46.80
1812;DHT22;904;47.814;11.134;2023-06-22T11:38:09;34.40;47.20
1812;DHT22;904;47.814;11.134;2023-06-22T11:40:41;34.50;47.60
1812;DHT22;904;47.814;11.134;2023-06-22T11:43:14;34.70;47.50
1812;DHT22;904;47.814;11.134;2023-06-22T11:45:46;34.80;45.70
1812;DHT22;904;47.814;11.134;2023-06-22T11:48:15;34.90;45.20
1812;DHT22;904;47.814;11.134;2023-06-22T11:50:43;35.00;45.50
1812;DHT22;904;47.814;11.134;2023-06-22T11:53:15;35.20;44.70
1812;DHT22;904;47.814;11.134;2023-06-22T11:55:44;35.30;45.20
1812;DHT22;904;47.814;11.134;2023-06-22T11:58:12;35.40;45.30
1812;DHT22;904;47.814;11.134;2023-06-22T12:00:39;35.50;45.20
1812;DHT22;904;47.814;11.134;2023-06-22T12:03:08;35.60;44.80
1812;DHT22;904;47.814;11.134;2023-06-22T12:05:39;35.70;44.50
1812;DHT22;904;47.814;11.134;2023-06-22T12:08:08;35.80;44.10
1812;DHT22;904;47.814;11.134;2023-06-22T12:10:35;35.80;43.10
1812;DHT22;904;47.814;11.134;2023-06-22T12:13:10;35.90;42.70
1812;DHT22;904;47.814;11.134;2023-06-22T12:15:42;36.00;41.20
1812;DHT22;904;47.814;11.134;2023-06-22T12:18:09;36.00;40.80
1812;DHT22;904;47.814;11.134;2023-06-22T12:20:45;36.00;40.40
1812;DHT22;904;47.814;11.134;2023-06-22T12:23:15;35.90;40.20
1812;DHT22;904;47.814;11.134;2023-06-22T12:25:45;35.90;39.90
1812;DHT22;904;47.814;11.134;2023-06-22T12:28:17;35.90;40.10
1812;DHT22;904;47.814;11.134;2023-06-22T12:30:45;35.90;39.80
1812;DHT22;904;47.814;11.134;2023-06-22T12:33:12;35.90;40.00
1812;DHT22;904;47.814;11.134;2023-06-22T12:36:01;35.90;40.00
1812;DHT22;904;47.814;11.134;2023-06-22T12:38:29;35.90;40.30
1812;DHT22;904;47.814;11.134;2023-06-22T12:41:00;35.80;39.20
1812;DHT22;904;47.814;11.134;2023-06-22T12:43:29;35.80;38.80
1812;DHT22;904;47.814;11.134;2023-06-22T12:46:11;35.80;39.40
1812;DHT22;904;47.814;11.134;2023-06-22T12:48:45;35.80;39.70
1812;DHT22;904;47.814;11.134;2023-06-22T12:51:20;35.90;39.20
1812;DHT22;904;47.814;11.134;2023-06-22T12:53:52;35.90;38.80
1812;DHT22;904;47.814;11.134;2023-06-22T12:56:24;35.90;38.10
1812;DHT22;904;47.814;11.134;2023-06-22T12:58:53;35.90;37.80
1812;DHT22;904;47.814;11.134;2023-06-22T13:01:25;35.80;37.70
1812;DHT22;904;47.814;11.134;2023-06-22T13:03:53;35.80;37.70
1812;DHT22;904;47.814;11.134;2023-06-22T13:06:28;35.80;38.30
1812;DHT22;904;47.814;11.134;2023-06-22T13:08:56;35.90;38.80
1812;DHT22;904;47.814;11.134;2023-06-22T13:11:23;35.90;37.50
1812;DHT22;904;47.814;11.134;2023-06-22T13:13:50;35.90;36.80
1812;DHT22;904;47.814;11.134;2023-06-22T13:16:23;35.90;37.30
1812;DHT22;904;47.814;11.134;2023-06-22T13:18:53;35.90;36.50
1812;DHT22;904;47.814;11.134;2023-06-22T13:21:20;36.00;36.00
1812;DHT22;904;47.814;11.134;2023-06-22T13:23:53;36.00;34.50
1812;DHT22;904;47.814;11.134;2023-06-22T13:26:21;36.00;33.70
1812;DHT22;904;47.814;11.134;2023-06-22T13:28:48;36.00;33.20
1812;DHT22;904;47.814;11.134;2023-06-22T13:31:16;36.00;33.10
1812;DHT22;904;47.814;11.134;2023-06-22T13:33:46;36.00;34.50
1812;DHT22;904;47.814;11.134;2023-06-22T13:36:16;36.10;34.80
1812;DHT22;904;47.814;11.134;2023-06-22T13:38:43;36.10;34.60
1812;DHT22;904;47.814;11.134;2023-06-22T13:41:15;36.10;34.60
1812;DHT22;904;47.814;11.134;2023-06-22T13:43:42;36.10;34.10
1812;DHT22;904;47.814;11.134;2023-06-22T13:46:17;36.10;33.80
1812;DHT22;904;47.814;11.134;2023-06-22T13:48:45;36.10;34.20
1812;DHT22;904;47.814;11.134;2023-06-22T13:51:14;36.10;34.70
1812;DHT22;904;47.814;11.134;2023-06-22T13:53:46;36.10;34.90
1812;DHT22;904;47.814;11.134;2023-06-22T13:56:15;36.10;33.60
1812;DHT22;904;47.814;11.134;2023-06-22T13:58:44;36.10;34.20
1812;DHT22;904;47.814;11.134;2023-06-22T14:01:11;36.10;33.90
1812;DHT22;904;47.814;11.134;2023-06-22T14:03:40;36.10;33.50
1812;DHT22;904;47.814;11.134;2023-06-22T14:06:08;36.10;33.00
1812;DHT22;904;47.814;11.134;2023-06-22T14:08:44;36.00;33.10
1812;DHT22;904;47.814;11.134;2023-06-22T14:11:15;35.90;32.90
1812;DHT22;904;47.814;11.134;2023-06-22T14:13:42;35.90;32.20
1812;DHT22;904;47.814;11.134;2023-06-22T14:16:10;35.80;32.00
1812;DHT22;904;47.814;11.134;2023-06-22T14:18:37;35.80;32.10
1812;DHT22;904;47.814;11.134;2023-06-22T14:21:04;35.70;31.50
1812;DHT22;904;47.814;11.134;2023-06-22T14:23:40;35.60;31.40
1812;DHT22;904;47.814;11.134;2023-06-22T14:26:12;35.60;30.90
1812;DHT22;904;47.814;11.134;2023-06-22T14:28:39;35.50;31.20
1812;DHT22;904;47.814;11.134;2023-06-22T14:31:06;35.50;31.40
1812;DHT22;904;47.814;11.134;2023-06-22T14:33:33;35.40;31.70
1812;DHT22;904;47.814;11.134;2023-06-22T14:36:00;35.40;32.10
1812;DHT22;904;47.814;11.134;2023-06-22T14:38:27;35.40;32.40
1812;DHT22;904;47.814;11.134;2023-06-22T14:40:59;35.40;31.70
1812;DHT22;904;47.814;11.134;2023-06-22T14:43:26;35.40;31.90
1812;DHT22;904;47.814;11.134;2023-06-22T14:45:55;35.30;33.20
1812;DHT22;904;47.814;11.134;2023-06-22T14:48:22;35.30;34.10
1812;DHT22;904;47.814;11.134;2023-06-22T14:50:49;35.30;33.90
1812;DHT22;904;47.814;11.134;2023-06-22T14:53:16;35.30;33.90
1812;DHT22;904;47.814;11.134;2023-06-22T14:55:43;35.30;34.20
1812;DHT22;904;47.814;11.134;2023-06-22T14:58:12;35.30;34.90
1812;DHT22;904;47.814;11.134;2023-06-22T15:00:39;35.30;35.70
1812;DHT22;904;47.814;11.134;2023-06-22T15:03:06;35.30;35.70
1812;DHT22;904;47.814;11.134;2023-06-22T15:05:36;35.30;35.70
1812;DHT22;904;47.814;11.134;2023-06-22T15:08:03;35.30;36.00
1812;DHT22;904;47.814;11.134;2023-06-22T15:10:30;35.30;36.30
1812;DHT22;904;47.814;11.134;2023-06-22T15:12:57;35.30;37.00
1812;DHT22;904;47.814;11.134;2023-06-22T15:15:25;35.40;37.20
1812;DHT22;904;47.814;11.134;2023-06-22T15:17:52;35.40;36.50
1812;DHT22;904;47.814;11.134;2023-06-22T15:20:19;35.30;35.80
1812;DHT22;904;47.814;11.134;2023-06-22T15:22:46;35.30;35.80
1812;DHT22;904;47.814;11.134;2023-06-22T15:25:13;35.20;35.30
1812;DHT22;904;47.814;11.134;2023-06-22T15:27:40;35.10;35.70
1812;DHT22;904;47.814;11.134;2023-06-22T15:30:08;35.10;35.80
1812;DHT22;904;47.814;11.134;2023-06-22T15:32:36;35.00;35.60
1812;DHT22;904;47.814;11.134;2023-06-22T15:35:04;34.90;36.40
1812;DHT22;904;47.814;11.134;2023-06-22T15:37:31;34.90;37.50
1812;DHT22;904;47.814;11.134;2023-06-22T15:39:57;34.80;38.10
1812;DHT22;904;47.814;11.134;2023-06-22T15:42:25;34.80;38.70
1812;DHT22;904;47.814;11.134;2023-06-22T15:44:52;34.70;39.20
1812;DHT22;904;47.814;11.134;2023-06-22T15:47:19;34.60;39.40
1812;DHT22;904;47.814;11.134;2023-06-22T15:49:48;34.50;39.60
1812;DHT22;904;47.814;11.134;2023-06-22T15:52:15;34.50;39.40
1812;DHT22;904;47.814;11.134;2023-06-22T15:54:44;34.40;39.00
1812;DHT22;904;47.814;11.134;2023-06-22T15:57:11;34.30;38.60
1812;DHT22;904;47.814;11.134;2023-06-22T15:59:39;34.20;38.40
1812;DHT22;904;47.814;11.134;2023-06-22T16:02:06;34.10;38.40
1812;DHT22;904;47.814;11.134;2023-06-22T16:04:34;34.00;38.10
1812;DHT22;904;47.814;11.134;2023-06-22T16:07:03;33.90;37.90
1812;DHT22;904;47.814;11.134;2023-06-22T16:09:30;33.80;38.10
1812;DHT22;904;47.814;11.134;2023-06-22T16:11:58;33.60;38.40
1812;DHT22;904;47.814;11.134;2023-06-22T16:14:25;33.60;38.90